Time;durP1;ratioP1;P1;durP2;ratioP2;P2;SDS_P1;SDS_P2;PMS_P1;PMS_P2;Temp;Humidity;BMP_temperature;BMP_pressure;BME280_temperature;BME280_humidity;BME280_pressure;Samples;Min_cycle;Max_cycle;Signal;HPM_P1;HPM_P2
2022/05/30 00:00:25;;;;;;;14.43;3.57;;;9.90;81.00;;;;;;5072891;28;20172;-85
2022/05/30 00:02:51;;;;;;;14.70;2.80;;;9.90;81.20;;;;;;5064184;28;20311;-86
2022/05/30 00:05:17;;;;;;;10.93;2.80;;;9.90;81.30;;;;;;5059768;28;20191;-86
2022/05/30 00:07:43;;;;;;;12.57;2.83;;;9.90;81.30;;;;;;5044834;28;20175;-86
2022/05/30 00:10:10;;;;;;;10.60;2.60;;;9.90;81.40;;;;;;5044972;28;20614;-86
2022/05/30 00:12:36;;;;;;;10.47;2.67;;;9.90;81.20;;;;;;5044357;28;20226;-86
2022/05/30 00:15:07;;;;;;;14.37;3.00;;;9.90;81.40;;;;;;5062229;28;20656;-85
2022/05/30 00:17:32;;;;;;;13.13;3.10;;;9.90;81.40;;;;;;5042361;28;20689;-86
2022/05/30 00:19:58;;;;;;;9.93;2.77;;;9.90;81.70;;;;;;5041808;28;20226;-86
2022/05/30 00:22:23;;;;;;;11.57;2.43;;;9.90;81.70;;;;;;5041424;28;20670;-85
2022/05/30 00:24:49;;;;;;;8.23;2.30;;;9.90;81.70;;;;;;5044195;28;20188;-85
2022/05/30 00:27:16;;;;;;;7.73;2.27;;;9.90;81.80;;;;;;5043634;28;20197;-86
2022/05/30 00:29:42;;;;;;;14.03;3.40;;;9.90;81.70;;;;;;5042590;28;20175;-86
2022/05/30 00:32:08;;;;;;;11.50;2.47;;;9.90;81.80;;;;;;5041715;28;20310;-87
2022/05/30 00:34:36;;;;;;;10.67;2.00;;;9.90;81.90;;;;;;5057086;28;20176;-85
2022/05/30 00:37:02;;;;;;;13.63;2.70;;;9.80;81.90;;;;;;5059488;28;20681;-86
2022/05/30 00:39:27;;;;;;;9.40;2.43;;;9.80;82.10;;;;;;5062094;28;20167;-86
2022/05/30 00:42:24;;;;;;;14.10;3.10;;;9.80;82.30;;;;;;5061323;28;20307;-86
2022/05/30 00:44:50;;;;;;;10.93;2.60;;;9.80;82.50;;;;;;5061657;28;20199;-85
2022/05/30 00:47:18;;;;;;;10.67;2.63;;;9.80;82.70;;;;;;5061765;28;20176;-85
2022/05/30 00:49:45;;;;;;;7.80;2.47;;;9.70;82.80;;;;;;5042049;28;20670;-85
2022/05/30 00:52:31;;;;;;;13.10;2.50;;;9.70;82.90;;;;;;5043963;28;20196;-85
2022/05/30 00:55:16;;;;;;;7.27;2.10;;;9.70;82.90;;;;;;5044296;28;20168;-85
2022/05/30 00:57:43;;;;;;;7.73;2.67;;;9.60;83.00;;;;;;5058711;28;20194;-85
2022/05/30 01:00:16;;;;;;;15.17;2.57;;;9.60;83.00;;;;;;5058506;28;20180;-85
2022/05/30 01:02:42;;;;;;;9.87;2.27;;;9.60;83.30;;;;;;5040474;28;20211;-85
2022/05/30 01:07:59;;;;;;;10.87;2.80;;;9.60;83.50;;;;;;5058647;28;20171;-85
2022/05/30 01:10:25;;;;;;;10.10;2.97;;;9.60;83.30;;;;;;5058740;28;20176;-85
2022/05/30 01:12:53;;;;;;;8.67;2.60;;;9.60;83.10;;;;;;5040425;28;20200;-85
2022/05/30 01:15:26;;;;;;;10.87;2.70;;;9.60;83.00;;;;;;5058429;28;20224;-85
2022/05/30 01:17:59;;;;;;;7.13;2.20;;;9.60;83.10;;;;;;5041413;28;20199;-85
2022/05/30 01:20:36;;;;;;;8.47;2.10;;;9.60;82.90;;;;;;5042702;28;20156;-85
2022/05/30 01:23:21;;;;;;;17.23;2.97;;;9.60;82.80;;;;;;5040965;28;20199;-84
2022/05/30 01:26:09;;;;;;;11.23;2.40;;;9.60;82.30;;;;;;5040305;28;20188;-85
2022/05/30 01:29:04;;;;;;;10.60;2.90;;;9.60;82.30;;;;;;5039388;28;20193;-85
2022/05/30 01:31:30;;;;;;;9.93;2.80;;;9.60;82.30;;;;;;5040531;28;20607;-84
2022/05/30 01:33:56;;;;;;;9.70;2.63;;;9.60;81.60;;;;;;5041565;28;20195;-84
2022/05/30 01:36:27;;;;;;;8.20;2.13;;;9.60;81.50;;;;;;5040777;28;20187;-85
2022/05/30 01:38:52;;;;;;;14.47;2.50;;;9.70;81.60;;;;;;5059053;28;20177;-85
2022/05/30 01:41:18;;;;;;;13.20;2.13;;;9.60;81.60;;;;;;5045072;28;20180;-85
2022/05/30 01:43:45;;;;;;;8.07;2.17;;;9.70;81.70;;;;;;5045789;28;20200;-85
2022/05/30 01:46:14;;;;;;;11.23;2.90;;;9.70;81.80;;;;;;5047824;28;20248;-85
2022/05/30 01:48:40;;;;;;;11.97;2.77;;;9.70;82.00;;;;;;5065324;28;20653;-85
2022/05/30 01:51:06;;;;;;;8.97;2.30;;;9.70;82.40;;;;;;5044929;28;20274;-85
2022/05/30 01:53:32;;;;;;;16.93;3.03;;;9.70;82.50;;;;;;5045493;28;20192;-85
2022/05/30 01:55:58;;;;;;;11.83;2.57;;;9.80;82.70;;;;;;5044991;28;20266;-85
2022/05/30 01:58:23;;;;;;;11.20;2.80;;;9.70;83.10;;;;;;5062371;28;20228;-85
2022/05/30 02:00:49;;;;;;;15.60;2.80;;;9.80;83.50;;;;;;5044791;28;20199;-85
2022/05/30 02:03:15;;;;;;;10.57;2.57;;;9.80;83.60;;;;;;5062876;28;20268;-85
2022/05/30 02:05:41;;;;;;;12.83;3.30;;;9.80;83.60;;;;;;5045569;28;20196;-85
2022/05/30 02:08:07;;;;;;;18.97;3.47;;;9.80;83.80;;;;;;5045836;28;20699;-85
2022/05/30 02:10:34;;;;;;;18.27;3.07;;;9.80;83.70;;;;;;5047474;28;20176;-86
2022/05/30 02:13:00;;;;;;;9.07;3.00;;;9.80;83.80;;;;;;5064500;28;20208;-85
2022/05/30 02:15:25;;;;;;;8.53;3.23;;;9.80;83.80;;;;;;5062599;28;20255;-86
2022/05/30 02:17:52;;;;;;;11.67;2.90;;;9.90;84.10;;;;;;5062309;28;20207;-86
2022/05/30 02:20:18;;;;;;;10.10;2.90;;;9.90;84.20;;;;;;5044166;28;20180;-86
2022/05/30 02:22:45;;;;;;;11.53;2.63;;;9.80;84.30;;;;;;5062833;28;20202;-86
2022/05/30 02:25:12;;;;;;;10.20;2.87;;;9.90;84.40;;;;;;5044940;28;20188;-85
2022/05/30 02:27:38;;;;;;;9.97;3.10;;;9.80;84.50;;;;;;5045447;28;20211;-86
2022/05/30 02:30:04;;;;;;;11.70;2.70;;;9.90;84.60;;;;;;5063116;28;20255;-86
2022/05/30 02:32:30;;;;;;;10.70;2.77;;;9.80;84.60;;;;;;5044713;28;20211;-85
2022/05/30 02:37:39;;;;;;;7.83;2.60;;;9.80;85.10;;;;;;5062730;28;20245;-86
2022/05/30 02:40:05;;;;;;;11.67;3.03;;;9.80;85.10;;;;;;5043483;28;20258;-86
2022/05/30 02:42:31;;;;;;;10.37;2.73;;;9.80;85.20;;;;;;5063062;28;20200;-85
2022/05/30 02:44:56;;;;;;;14.93;2.87;;;9.80;85.40;;;;;;5062094;28;20169;-84
2022/05/30 02:47:22;;;;;;;12.20;3.23;;;9.80;85.40;;;;;;5044147;28;20196;-86
2022/05/30 02:49:48;;;;;;;9.47;2.93;;;9.80;85.50;;;;;;5043206;28;20184;-86
2022/05/30 02:52:13;;;;;;;12.97;3.00;;;9.80;85.40;;;;;;5043515;28;20195;-86
2022/05/30 02:54:39;;;;;;;5.57;2.43;;;9.80;85.40;;;;;;5045707;28;20176;-86
2022/05/30 02:57:05;;;;;;;16.03;2.77;;;9.80;85.50;;;;;;5062556;28;20563;-86
2022/05/30 02:59:31;;;;;;;13.87;2.97;;;9.80;85.50;;;;;;5044738;28;20225;-85
2022/05/30 03:01:56;;;;;;;11.30;2.90;;;9.80;85.40;;;;;;5062467;28;20606;-86
2022/05/30 03:04:22;;;;;;;10.93;3.10;;;9.80;85.60;;;;;;5061414;28;20172;-85
2022/05/30 03:06:48;;;;;;;10.10;2.90;;;9.80;85.40;;;;;;5061365;28;20229;-85
2022/05/30 03:09:18;;;;;;;11.27;3.20;;;9.80;85.60;;;;;;5061823;28;20198;-86
2022/05/30 03:11:43;;;;;;;17.83;3.40;;;9.80;85.50;;;;;;5054996;28;20237;-86
2022/05/30 03:14:09;;;;;;;11.77;2.97;;;9.80;85.70;;;;;;5055134;28;20184;-86
2022/05/30 03:16:34;;;;;;;7.33;2.57;;;9.80;85.50;;;;;;5037116;28;20207;-86
2022/05/30 03:19:00;;;;;;;12.70;2.90;;;9.80;85.60;;;;;;5055025;28;20195;-86
2022/05/30 03:21:25;;;;;;;11.47;2.70;;;9.80;85.60;;;;;;5054656;28;20176;-86
2022/05/30 03:23:53;;;;;;;9.93;2.80;;;9.80;85.60;;;;;;5036909;28;20289;-86
2022/05/30 03:26:19;;;;;;;12.37;3.10;;;9.70;85.90;;;;;;5054673;28;20276;-86
2022/05/30 03:28:44;;;;;;;10.20;2.40;;;9.70;86.20;;;;;;5037019;28;20172;-86
2022/05/30 03:31:10;;;;;;;8.27;3.00;;;9.70;86.40;;;;;;5054947;28;20588;-86
2022/05/30 03:33:38;;;;;;;9.87;3.07;;;9.70;86.60;;;;;;5036582;28;20188;-86
2022/05/30 03:36:10;;;;;;;7.77;2.73;;;9.70;86.70;;;;;;5054461;28;20182;-86
2022/05/30 03:38:36;;;;;;;11.73;2.90;;;9.70;86.70;;;;;;5036652;28;20169;-86
2022/05/30 03:41:01;;;;;;;12.97;3.10;;;9.70;86.50;;;;;;5054357;28;20222;-86
2022/05/30 03:43:27;;;;;;;10.70;2.97;;;9.70;86.30;;;;;;5054054;28;20685;-86
2022/05/30 03:45:52;;;;;;;8.57;2.40;;;9.70;86.30;;;;;;5036529;28;20179;-86
2022/05/30 03:48:20;;;;;;;11.53;3.17;;;9.70;86.20;;;;;;5036599;28;20210;-86
2022/05/30 03:50:48;;;;;;;12.23;3.27;;;9.70;86.30;;;;;;5054520;28;20171;-86
2022/05/30 03:53:14;;;;;;;14.00;3.17;;;9.70;86.40;;;;;;5036186;28;20218;-86
2022/05/30 03:55:43;;;;;;;8.60;3.00;;;9.70;86.30;;;;;;5036295;28;20179;-86
2022/05/30 03:58:10;;;;;;;9.90;2.37;;;9.70;86.30;;;;;;5035911;28;20697;-86
2022/05/30 04:00:36;;;;;;;13.50;3.10;;;9.70;86.20;;;;;;5053714;28;20650;-87
2022/05/30 04:03:02;;;;;;;10.40;2.83;;;9.70;86.10;;;;;;5035448;28;20227;-86
2022/05/30 04:05:29;;;;;;;10.50;3.00;;;9.60;86.10;;;;;;5035949;28;20257;-86
2022/05/30 04:07:54;;;;;;;14.23;3.83;;;9.70;86.30;;;;;;5036155;28;20263;-86
2022/05/30 04:10:21;;;;;;;7.87;2.73;;;9.70;86.20;;;;;;5053676;28;20677;-86
2022/05/30 04:12:47;;;;;;;13.60;3.20;;;9.70;86.00;;;;;;5035975;28;20226;-86
2022/05/30 04:15:19;;;;;;;7.17;2.17;;;9.60;85.70;;;;;;5053742;28;20172;-86
2022/05/30 04:17:45;;;;;;;12.50;3.30;;;9.70;85.70;;;;;;5035764;28;20200;-86
2022/05/30 04:20:11;;;;;;;9.57;2.50;;;9.70;85.60;;;;;;5035758;28;20182;-86
2022/05/30 04:22:37;;;;;;;10.07;2.90;;;9.70;85.30;;;;;;5035651;28;20195;-86
2022/05/30 04:25:03;;;;;;;9.90;2.43;;;9.70;85.00;;;;;;5035687;28;20542;-86
2022/05/30 04:27:28;;;;;;;9.27;2.40;;;9.70;85.00;;;;;;5053495;28;20668;-86
2022/05/30 04:29:54;;;;;;;13.03;2.53;;;9.60;85.00;;;;;;5035877;28;20176;-86
2022/05/30 04:32:19;;;;;;;8.83;2.63;;;9.60;85.20;;;;;;5035530;28;20203;-87
2022/05/30 04:34:45;;;;;;;11.00;2.83;;;9.70;85.20;;;;;;5035561;28;20199;-86
2022/05/30 04:37:11;;;;;;;11.83;2.50;;;9.60;85.30;;;;;;5035419;28;20294;-86
2022/05/30 04:39:37;;;;;;;9.37;2.53;;;9.60;85.40;;;;;;5053405;28;20164;-86
2022/05/30 04:42:04;;;;;;;8.23;2.43;;;9.60;85.50;;;;;;5053322;28;20569;-86
2022/05/30 04:44:29;;;;;;;8.80;2.73;;;9.60;85.50;;;;;;5053472;28;20172;-86
2022/05/30 04:46:57;;;;;;;4.70;2.50;;;9.70;85.70;;;;;;5053204;28;20665;-86
2022/05/30 04:49:24;;;;;;;9.40;2.40;;;9.60;85.70;;;;;;5035773;28;20245;-86
2022/05/30 04:51:50;;;;;;;11.57;3.17;;;9.70;85.90;;;;;;5035168;28;20203;-86
2022/05/30 04:54:16;;;;;;;9.53;2.77;;;9.70;86.10;;;;;;5035616;28;20179;-87
2022/05/30 04:56:41;;;;;;;18.13;3.13;;;9.70;86.30;;;;;;5035292;28;20203;-88
2022/05/30 04:59:07;;;;;;;14.77;3.03;;;9.60;86.40;;;;;;5035321;28;20249;-87
2022/05/30 05:01:34;;;;;;;10.43;2.80;;;9.70;86.50;;;;;;5053128;28;20203;-86
2022/05/30 05:03:59;;;;;;;13.33;2.90;;;9.60;86.80;;;;;;5053115;28;20182;-86
2022/05/30 05:06:25;;;;;;;4.57;2.50;;;9.60;86.80;;;;;;5035142;28;20171;-85
2022/05/30 05:08:51;;;;;;;17.33;2.90;;;9.50;87.10;;;;;;5035160;28;20271;-86
2022/05/30 05:11:23;;;;;;;13.83;2.80;;;9.50;87.20;;;;;;5034987;28;20203;-86
2022/05/30 05:13:49;;;;;;;12.90;3.30;;;9.50;87.20;;;;;;5037942;28;20188;-86
2022/05/30 05:16:16;;;;;;;12.80;3.83;;;9.50;87.40;;;;;;5057065;28;20266;-86
2022/05/30 05:18:41;;;;;;;8.53;2.80;;;9.60;87.60;;;;;;5057051;28;20184;-86
2022/05/30 05:21:07;;;;;;;16.20;2.70;;;9.60;87.60;;;;;;5038828;28;20207;-86
2022/05/30 05:23:33;;;;;;;9.03;2.27;;;9.70;87.80;;;;;;5038844;28;20615;-86
2022/05/30 05:26:01;;;;;;;10.00;2.70;;;9.60;87.70;;;;;;5038923;28;20218;-86
2022/05/30 05:28:27;;;;;;;10.23;2.90;;;9.70;87.70;;;;;;5056745;28;20164;-85
2022/05/30 05:30:53;;;;;;;13.00;2.93;;;9.70;88.00;;;;;;5056767;28;20176;-86
2022/05/30 05:33:18;;;;;;;7.13;2.50;;;9.70;88.00;;;;;;5040368;28;20314;-86
2022/05/30 05:35:46;;;;;;;6.90;2.33;;;9.80;88.00;;;;;;5056901;28;20183;-86
2022/05/30 05:38:12;;;;;;;8.87;2.50;;;9.80;87.90;;;;;;5038543;28;20673;-85
2022/05/30 05:40:42;;;;;;;10.73;2.83;;;9.80;87.60;;;;;;5039185;28;20176;-85
2022/05/30 05:43:09;;;;;;;9.43;2.53;;;9.90;87.30;;;;;;5057044;28;20800;-85
2022/05/30 05:45:35;;;;;;;9.50;2.27;;;9.90;87.20;;;;;;5057001;28;20169;-85
2022/05/30 05:48:01;;;;;;;7.67;2.13;;;10.00;87.20;;;;;;5056678;28;20669;-86
2022/05/30 05:50:26;;;;;;;6.23;1.90;;;10.00;86.90;;;;;;5039514;28;20180;-85
2022/05/30 05:52:53;;;;;;;6.77;2.20;;;10.00;86.50;;;;;;5038965;28;20274;-85
2022/05/30 05:55:23;;;;;;;10.63;2.17;;;10.00;86.30;;;;;;5056625;28;20254;-85
2022/05/30 05:57:49;;;;;;;5.63;2.23;;;10.00;85.90;;;;;;5056628;28;20187;-86
2022/05/30 06:00:16;;;;;;;6.17;2.20;;;10.00;86.00;;;;;;5038496;28;20180;-85
2022/05/30 06:02:42;;;;;;;6.20;2.10;;;10.10;86.30;;;;;;5038599;28;20254;-85
2022/05/30 06:05:09;;;;;;;4.37;1.83;;;10.20;86.20;;;;;;5056369;28;20172;-84
2022/05/30 06:07:37;;;;;;;5.87;1.97;;;10.10;86.10;;;;;;5038291;28;20192;-85
2022/05/30 06:10:04;;;;;;;5.90;1.60;;;10.10;86.10;;;;;;5056164;28;20225;-85
2022/05/30 06:12:30;;;;;;;4.10;1.90;;;10.20;86.30;;;;;;5039114;28;20655;-85
2022/05/30 06:14:55;;;;;;;8.17;2.00;;;10.20;86.00;;;;;;5056436;28;20184;-85
2022/05/30 06:17:21;;;;;;;4.87;1.80;;;10.20;85.90;;;;;;5056303;28;20731;-85
2022/05/30 06:19:47;;;;;;;7.27;2.63;;;10.20;85.50;;;;;;5038325;28;20176;-85
2022/05/30 06:22:13;;;;;;;10.43;2.50;;;10.20;85.70;;;;;;5056191;28;20570;-85
2022/05/30 06:24:38;;;;;;;7.90;2.37;;;10.10;86.00;;;;;;5037380;28;20183;-85
2022/05/30 06:27:06;;;;;;;7.90;2.03;;;10.10;86.20;;;;;;5056147;28;20274;-85
2022/05/30 06:29:32;;;;;;;10.67;2.03;;;10.10;86.40;;;;;;5056199;28;20176;-85
2022/05/30 06:31:58;;;;;;;4.87;1.77;;;10.10;86.30;;;;;;5056175;28;20662;-85
2022/05/30 06:34:24;;;;;;;4.23;1.57;;;10.20;86.40;;;;;;5056140;28;20180;-86
2022/05/30 06:36:49;;;;;;;8.00;1.90;;;10.20;86.40;;;;;;5056115;28;20203;-87
2022/05/30 06:39:17;;;;;;;7.50;2.00;;;10.20;86.40;;;;;;5038032;28;20183;-86
2022/05/30 06:41:44;;;;;;;5.47;2.20;;;10.20;86.40;;;;;;5056004;28;20172;-85
2022/05/30 06:44:10;;;;;;;8.53;2.53;;;10.00;86.80;;;;;;5037622;28;20182;-86
2022/05/30 06:46:37;;;;;;;8.53;3.13;;;10.10;87.30;;;;;;5037781;28;20639;-86
2022/05/30 06:49:05;;;;;;;8.80;1.90;;;10.20;87.50;;;;;;5037635;28;20187;-86
2022/05/30 06:51:33;;;;;;;5.70;1.77;;;10.20;87.50;;;;;;5038439;28;20227;-86
2022/05/30 06:53:58;;;;;;;7.03;1.80;;;10.20;87.80;;;;;;5055552;28;20223;-86
2022/05/30 06:56:30;;;;;;;9.50;2.53;;;10.20;87.50;;;;;;5055649;28;20258;-86
2022/05/30 06:58:57;;;;;;;8.40;2.87;;;10.20;87.00;;;;;;5055285;28;20242;-86
2022/05/30 07:01:27;;;;;;;8.40;2.00;;;10.30;87.00;;;;;;5055764;28;20665;-86
2022/05/30 07:03:52;;;;;;;5.47;1.90;;;10.30;87.10;;;;;;5037653;28;20222;-86
2022/05/30 07:06:22;;;;;;;5.03;1.60;;;10.60;87.60;;;;;;5055618;28;20176;-86
2022/05/30 07:08:48;;;;;;;7.40;2.03;;;10.60;86.70;;;;;;5037561;28;20175;-87
2022/05/30 07:11:18;;;;;;;4.67;1.90;;;10.70;86.40;;;;;;5055149;28;20178;-86
2022/05/30 07:13:45;;;;;;;5.57;2.30;;;10.70;85.60;;;;;;5055406;28;20279;-86
2022/05/30 07:16:10;;;;;;;3.90;2.07;;;10.90;86.10;;;;;;5037257;28;20180;-86
2022/05/30 07:18:37;;;;;;;5.70;1.83;;;11.10;86.30;;;;;;5037409;28;20214;-86
2022/05/30 07:21:08;;;;;;;3.93;1.87;;;11.00;84.60;;;;;;5055132;28;20173;-86
2022/05/30 07:23:36;;;;;;;5.57;1.60;;;11.00;83.30;;;;;;5056719;28;20247;-86
2022/05/30 07:26:05;;;;;;;2.60;1.53;;;11.10;82.90;;;;;;5055147;28;20654;-85
2022/05/30 07:28:30;;;;;;;6.83;1.80;;;11.20;83.20;;;;;;5054822;28;20192;-87
2022/05/30 07:31:04;;;;;;;5.87;1.60;;;11.20;81.70;;;;;;5054806;28;20183;-85
2022/05/30 07:33:31;;;;;;;7.70;1.43;;;11.30;81.60;;;;;;5036735;28;20211;-85
2022/05/30 07:35:56;;;;;;;8.27;2.00;;;11.30;81.90;;;;;;5054009;28;20240;-86
2022/05/30 07:38:22;;;;;;;5.83;2.00;;;11.50;81.50;;;;;;5036972;28;20641;-86
2022/05/30 07:40:48;;;;;;;5.80;1.90;;;11.60;81.50;;;;;;5037105;28;20206;-86
2022/05/30 07:43:14;;;;;;;5.07;1.43;;;11.80;81.20;;;;;;5054846;28;20202;-85
2022/05/30 07:45:40;;;;;;;7.63;1.80;;;11.90;80.90;;;;;;5054488;28;20172;-85
2022/05/30 07:48:06;;;;;;;6.07;1.87;;;11.70;80.60;;;;;;5054735;28;20601;-85
2022/05/30 07:50:34;;;;;;;5.17;1.60;;;11.70;79.50;;;;;;5054213;28;20680;-85
2022/05/30 07:52:59;;;;;;;7.03;1.60;;;11.60;79.60;;;;;;5036376;28;20211;-85
2022/05/30 07:55:25;;;;;;;8.17;2.40;;;11.50;79.60;;;;;;5036351;28;20172;-85
2022/05/30 07:57:51;;;;;;;4.87;1.40;;;11.60;80.40;;;;;;5036148;28;20708;-85
2022/05/30 08:00:18;;;;;;;8.53;1.90;;;11.50;78.90;;;;;;5036333;28;20176;-85
2022/05/30 08:02:44;;;;;;;8.33;1.97;;;11.50;78.90;;;;;;5036690;28;20192;-86
2022/05/30 08:05:12;;;;;;;8.70;2.27;;;11.60;79.90;;;;;;5036699;28;20310;-85
2022/05/30 08:07:38;;;;;;;5.97;1.70;;;11.70;80.00;;;;;;5054148;28;20193;-85
2022/05/30 08:10:09;;;;;;;5.77;1.70;;;11.70;79.30;;;;;;5054391;28;20204;-85
2022/05/30 08:12:34;;;;;;;7.50;1.93;;;11.70;80.10;;;;;;5036246;28;20207;-85
2022/05/30 08:15:01;;;;;;;4.17;1.00;;;11.80;80.50;;;;;;5054732;28;20195;-85
2022/05/30 08:17:26;;;;;;;5.20;1.60;;;11.70;78.20;;;;;;5037455;28;20208;-85
2022/05/30 08:19:52;;;;;;;7.10;1.93;;;11.90;80.00;;;;;;5054866;28;20641;-84
2022/05/30 08:22:19;;;;;;;8.17;2.63;;;11.80;80.10;;;;;;5036165;28;20617;-85
2022/05/30 08:24:52;;;;;;;3.33;1.30;;;11.70;80.20;;;;;;5054270;28;20172;-85
2022/05/30 08:27:18;;;;;;;4.43;1.20;;;11.80;80.90;;;;;;5036030;28;20210;-85
2022/05/30 08:29:44;;;;;;;3.70;1.20;;;11.60;80.40;;;;;;5054083;28;20224;-85
2022/05/30 08:32:09;;;;;;;1.37;0.80;;;11.40;79.10;;;;;;5053843;28;20227;-85
2022/05/30 08:34:36;;;;;;;2.93;0.93;;;11.30;78.60;;;;;;5053813;28;20305;-85
2022/05/30 08:37:02;;;;;;;4.50;0.90;;;11.20;78.20;;;;;;5036490;28;20682;-85
2022/05/30 08:42:12;;;;;;;4.57;0.87;;;11.00;77.70;;;;;;5053730;28;20203;-86
2022/05/30 08:44:38;;;;;;;1.23;0.70;;;11.00;78.00;;;;;;5053510;28;20172;-85
2022/05/30 08:47:12;;;;;;;1.93;0.80;;;11.00;77.80;;;;;;5035247;28;20180;-87
2022/05/30 08:49:52;;;;;;;2.60;1.00;;;11.00;77.80;;;;;;5053941;28;20229;-87
2022/05/30 08:52:26;;;;;;;2.07;1.30;;;11.20;78.20;;;;;;5035891;28;20218;-87
2022/05/30 08:55:14;;;;;;;1.87;0.80;;;11.30;77.80;;;;;;5053808;28;20514;-86
2022/05/30 08:58:07;;;;;;;3.17;1.33;;;11.40;78.60;;;;;;5053486;28;20199;-85
2022/05/30 09:00:38;;;;;;;2.40;0.90;;;11.40;78.10;;;;;;5035432;28;20214;-86
2022/05/30 09:03:16;;;;;;;1.80;1.00;;;11.50;78.20;;;;;;5035460;28;20202;-86
2022/05/30 09:05:43;;;;;;;3.13;1.30;;;11.50;77.00;;;;;;5053610;28;20630;-86
2022/05/30 09:08:17;;;;;;;3.90;2.10;;;11.70;78.10;;;;;;5053728;28;20183;-87
2022/05/30 09:11:22;;;;;;;3.37;1.47;;;11.70;77.60;;;;;;5036032;28;20747;-87
2022/05/30 09:13:50;;;;;;;2.53;1.20;;;11.90;78.00;;;;;;5038976;28;20208;-87
2022/05/30 09:16:30;;;;;;;5.03;1.23;;;11.80;76.20;;;;;;5053915;28;20183;-87
2022/05/30 09:18:58;;;;;;;2.30;1.43;;;11.90;76.60;;;;;;5035613;28;20187;-85
2022/05/30 09:21:28;;;;;;;1.43;0.90;;;12.00;75.90;;;;;;5035248;28;20199;-85
2022/05/30 09:23:53;;;;;;;1.80;0.80;;;12.10;76.80;;;;;;5035387;28;20573;-86
2022/05/30 09:26:25;;;;;;;1.63;1.03;;;12.30;76.60;;;;;;5035872;28;20198;-86
2022/05/30 09:28:53;;;;;;;3.27;1.00;;;12.60;76.80;;;;;;5036306;28;20203;-86
2022/05/30 09:31:35;;;;;;;2.77;1.10;;;12.60;76.00;;;;;;5053647;28;20642;-86
2022/05/30 09:34:29;;;;;;;6.23;1.40;;;12.70;75.70;;;;;;5053537;28;20156;-87
2022/05/30 09:36:55;;;;;;;2.10;1.00;;;13.00;75.40;;;;;;5035938;28;20196;-86
2022/05/30 09:39:20;;;;;;;3.90;1.10;;;13.30;72.50;;;;;;5053351;28;20187;-86
2022/05/30 09:41:53;;;;;;;3.10;1.20;;;13.40;71.30;;;;;;5053287;28;20653;-86
2022/05/30 09:44:19;;;;;;;2.00;0.90;;;13.50;68.70;;;;;;5053547;28;20638;-87
2022/05/30 09:47:03;;;;;;;2.63;1.10;;;13.40;69.00;;;;;;5054023;28;20164;-86
2022/05/30 09:49:39;;;;;;;2.17;1.10;;;13.50;71.20;;;;;;5035393;28;20167;-85
2022/05/30 09:52:33;;;;;;;1.70;0.70;;;13.80;69.90;;;;;;5035150;28;20188;-86
2022/05/30 09:54:59;;;;;;;1.57;0.87;;;13.80;69.20;;;;;;5053031;28;20175;-86
2022/05/30 09:57:41;;;;;;;3.17;1.00;;;13.80;68.10;;;;;;5035229;28;20720;-86
2022/05/30 10:00:19;;;;;;;4.17;1.00;;;14.10;68.20;;;;;;5037342;28;20229;-85
2022/05/30 10:02:45;;;;;;;2.37;1.10;;;13.80;67.90;;;;;;5039195;28;20198;-87
2022/05/30 10:05:19;;;;;;;1.80;1.10;;;13.70;69.40;;;;;;5056796;28;20198;-86
2022/05/30 10:07:56;;;;;;;3.77;0.90;;;14.00;69.20;;;;;;5038845;28;20168;-86
2022/05/30 10:10:29;;;;;;;3.43;1.00;;;14.10;70.10;;;;;;5038749;28;20190;-86
2022/05/30 10:13:01;;;;;;;1.80;1.03;;;14.00;67.70;;;;;;5038473;28;20195;-85
2022/05/30 10:15:32;;;;;;;5.00;1.43;;;14.10;68.00;;;;;;5038622;28;20210;-83
2022/05/30 10:18:23;;;;;;;5.80;2.07;;;14.30;67.80;;;;;;5056320;28;20208;-83
2022/05/30 10:21:07;;;;;;;4.30;0.80;;;14.40;67.80;;;;;;5056364;28;20152;-83
2022/05/30 10:30:34;;;;;;;2.63;1.00;;;14.30;67.80;;;;;;5056259;28;20171;-83
2022/05/30 10:33:05;;;;;;;2.28;1.00;;;14.30;67.50;;;;;;5038386;28;20230;-83
2022/05/30 10:35:55;;;;;;;2.45;0.90;;;14.30;65.20;;;;;;5056154;28;20180;-83
2022/05/30 10:38:27;;;;;;;2.53;0.80;;;14.30;64.60;;;;;;5055813;28;20199;-82
2022/05/30 10:41:09;;;;;;;1.23;0.70;;;14.30;67.40;;;;;;5056377;28;20160;-85
2022/05/30 10:43:56;;;;;;;1.00;0.93;;;14.30;67.70;;;;;;5038391;28;20302;-83
2022/05/30 10:46:35;;;;;;;1.90;0.80;;;14.20;67.60;;;;;;5055874;28;20172;-83
2022/05/30 10:49:08;;;;;;;1.60;1.05;;;14.30;66.90;;;;;;5038143;28;20172;-82
2022/05/30 10:52:03;;;;;;;1.83;0.80;;;14.30;67.20;;;;;;5037890;28;20626;-83
2022/05/30 10:54:32;;;;;;;2.65;1.00;;;14.30;68.70;;;;;;5026980;28;20650;-82
2022/05/30 10:57:17;;;;;;;1.48;1.00;;;14.60;68.30;;;;;;5056064;28;20200;-82
2022/05/30 10:59:55;;;;;;;1.48;0.80;;;14.50;68.00;;;;;;5055777;28;20204;-83
2022/05/30 11:02:50;;;;;;;1.67;0.80;;;14.70;66.20;;;;;;5055485;28;20192;-83
2022/05/30 11:05:19;;;;;;;3.00;1.27;;;14.60;66.50;;;;;;5055609;28;20618;-84
2022/05/30 11:07:50;;;;;;;2.35;0.98;;;14.70;68.30;;;;;;5037404;28;20173;-82
2022/05/30 11:10:41;;;;;;;3.65;1.73;;;14.50;68.80;;;;;;5038075;28;20172;-85
2022/05/30 11:13:37;;;;;;;3.70;1.23;;;14.50;68.90;;;;;;5038273;28;20222;-83
2022/05/30 11:16:41;;;;;;;2.53;1.00;;;14.50;68.20;;;;;;5038836;28;20226;-82
2022/05/30 11:19:21;;;;;;;2.35;0.95;;;14.50;68.80;;;;;;5024805;28;20286;-82
2022/05/30 11:21:59;;;;;;;3.63;1.13;;;14.60;68.70;;;;;;5055255;28;20497;-83
2022/05/30 11:24:24;;;;;;;1.70;1.00;;;14.50;66.50;;;;;;5055288;28;20233;-82
2022/05/30 11:26:56;;;;;;;6.60;1.58;;;14.40;64.80;;;;;;5037221;28;20204;-82
2022/05/30 11:29:44;;;;;;;2.22;1.10;;;14.30;65.30;;;;;;5055509;28;20590;-82
2022/05/30 11:32:31;;;;;;;3.50;1.10;;;14.50;65.60;;;;;;5055352;28;20200;-82
2022/05/30 11:35:32;;;;;;;3.08;1.05;;;14.20;65.30;;;;;;5037268;28;20528;-84
2022/05/30 11:38:23;;;;;;;1.15;0.90;;;14.20;65.10;;;;;;5055033;28;20565;-82
2022/05/30 11:41:13;;;;;;;2.47;1.27;;;13.80;65.00;;;;;;5055532;28;20176;-82
2022/05/30 11:44:00;;;;;;;6.27;1.30;;;13.80;68.10;;;;;;5055493;28;20274;-82
2022/05/30 11:46:41;;;;;;;2.83;1.20;;;14.00;67.10;;;;;;5055958;28;20184;-82
2022/05/30 11:49:25;;;;;;;5.47;1.55;;;13.90;69.60;;;;;;5055841;28;20156;-84
2022/05/30 11:52:12;;;;;;;5.97;1.30;;;14.30;70.10;;;;;;5056300;28;20153;-82
2022/05/30 11:55:08;;;;;;;4.03;1.30;;;14.20;69.20;;;;;;5056225;28;20695;-82
2022/05/30 11:57:59;;;;;;;2.20;1.30;;;14.00;68.90;;;;;;5055902;28;20194;-82
2022/05/30 12:00:41;;;;;;;4.70;1.05;;;14.10;69.00;;;;;;5038255;28;20172;-82
2022/05/30 12:03:22;;;;;;;2.72;0.70;;;14.20;69.70;;;;;;5055219;28;20184;-83
2022/05/30 12:06:24;;;;;;;1.73;0.75;;;14.40;68.80;;;;;;5037121;28;20207;-82
2022/05/30 12:09:21;;;;;;;2.30;0.95;;;14.60;67.70;;;;;;5054822;28;20164;-82
2022/05/30 12:12:08;;;;;;;0.90;0.70;;;14.80;66.50;;;;;;5055257;28;20164;-83
2022/05/30 12:15:18;;;;;;;5.53;1.17;;;14.90;66.10;;;;;;5054976;28;20160;-83
2022/05/30 12:24:21;;;;;;;1.35;0.80;;;14.70;64.10;;;;;;5054638;28;20195;-83
2022/05/30 12:26:59;;;;;;;1.20;0.60;;;14.20;66.50;;;;;;5054460;28;20184;-83
2022/05/30 12:29:37;;;;;;;2.10;0.90;;;14.30;66.00;;;;;;5036532;28;20217;-82
2022/05/30 12:32:32;;;;;;;2.70;0.90;;;14.60;65.60;;;;;;5036321;28;20242;-84
2022/05/30 12:34:58;;;;;;;1.45;0.70;;;14.70;66.60;;;;;;5054637;28;20651;-83
2022/05/30 12:37:44;;;;;;;3.88;0.90;;;14.70;64.90;;;;;;5054590;28;20192;-83
2022/05/30 12:40:24;;;;;;;2.25;0.70;;;14.40;66.10;;;;;;5036447;28;20176;-83
2022/05/30 12:43:15;;;;;;;1.98;0.90;;;14.60;66.70;;;;;;5054502;28;20188;-84
2022/05/30 12:45:56;;;;;;;2.50;0.93;;;14.70;66.90;;;;;;5036417;28;20168;-83
2022/05/30 12:48:27;;;;;;;1.75;0.80;;;14.80;64.40;;;;;;5054299;28;20654;-84
2022/05/30 12:50:53;;;;;;;2.55;0.95;;;14.40;64.10;;;;;;5036653;28;20199;-84
2022/05/30 12:53:21;;;;;;;2.42;0.90;;;14.60;67.20;;;;;;5036448;28;20739;-83
2022/05/30 12:55:52;;;;;;;3.95;1.05;;;14.60;65.60;;;;;;5054334;28;20620;-84
2022/05/30 12:58:44;;;;;;;2.28;0.80;;;15.20;64.90;;;;;;5054497;28;20661;-83
2022/05/30 13:01:18;;;;;;;1.85;0.88;;;15.30;65.20;;;;;;5050567;28;20188;-84
2022/05/30 13:03:46;;;;;;;1.58;0.70;;;15.20;65.10;;;;;;5036530;28;20282;-84
2022/05/30 13:06:19;;;;;;;2.47;0.80;;;15.30;65.10;;;;;;5054114;28;20568;-83
2022/05/30 13:08:52;;;;;;;1.98;0.90;;;15.40;65.50;;;;;;5037000;28;20172;-85
2022/05/30 13:11:32;;;;;;;2.45;0.82;;;15.60;63.70;;;;;;5054450;28;20222;-84
2022/05/30 13:14:22;;;;;;;3.47;1.00;;;15.60;62.00;;;;;;5036523;28;20216;-84
2022/05/30 13:16:48;;;;;;;1.55;0.80;;;15.70;64.30;;;;;;5054097;28;20191;-84
2022/05/30 13:19:16;;;;;;;0.70;0.70;;;15.60;61.70;;;;;;5035905;28;20172;-83
2022/05/30 13:21:48;;;;;;;1.60;0.75;;;15.40;62.90;;;;;;5037563;28;20172;-86
2022/05/30 13:24:29;;;;;;;1.98;0.80;;;15.20;62.10;;;;;;5056204;28;20172;-83
2022/05/30 13:26:56;;;;;;;1.27;0.73;;;15.40;62.80;;;;;;5055752;28;20194;-86
2022/05/30 13:29:38;;;;;;;4.45;0.98;;;15.50;62.00;;;;;;5055045;28;20203;-83